sensor_id;sensor_type;location;lat;lon;timestamp;P1;durP1;ratioP1;P2;durP2;ratioP2
22284;SDS011;11311;52.192;20.900;2024-01-16T00:02:22;2.75;;;2.25;;
22284;SDS011;11311;52.192;20.900;2024-01-16T00:04:52;6.35;;;2.88;;
22284;SDS011;11311;52.192;20.900;2024-01-16T00:07:21;2.67;;;2.40;;
22284;SDS011;11311;52.192;20.900;2024-01-16T00:09:50;6.30;;;2.17;;
22284;SDS011;11311;52.192;20.900;2024-01-16T00:12:21;10.40;;;2.55;;
22284;SDS011;11311;52.192;20.900;2024-01-16T00:14:50;5.90;;;3.30;;
22284;SDS011;11311;52.192;20.900;2024-01-16T00:17:19;2.42;;;2.22;;
22284;SDS011;11311;52.192;20.900;2024-01-16T00:19:47;5.38;;;2.67;;
22284;SDS011;11311;52.192;20.900;2024-01-16T00:22:18;4.90;;;2.77;;
22284;SDS011;11311;52.192;20.900;2024-01-16T00:24:47;4.05;;;2.45;;
22284;SDS011;11311;52.192;20.900;2024-01-16T00:27:16;7.68;;;3.47;;
22284;SDS011;11311;52.192;20.900;2024-01-16T00:29:45;3.53;;;2.83;;
22284;SDS011;11311;52.192;20.900;2024-01-16T00:32:14;2.65;;;2.38;;
22284;SDS011;11311;52.192;20.900;2024-01-16T00:34:43;2.58;;;2.35;;
22284;SDS011;11311;52.192;20.900;2024-01-16T00:37:12;5.40;;;2.35;;
22284;SDS011;11311;52.192;20.900;2024-01-16T00:39:43;3.65;;;2.55;;
22284;SDS011;11311;52.192;20.900;2024-01-16T00:42:12;3.60;;;2.90;;
22284;SDS011;11311;52.192;20.900;2024-01-16T00:44:41;3.67;;;2.63;;
22284;SDS011;11311;52.192;20.900;2024-01-16T00:47:10;5.18;;;2.75;;
22284;SDS011;11311;52.192;20.900;2024-01-16T00:49:38;3.72;;;2.65;;
22284;SDS011;11311;52.192;20.900;2024-01-16T00:52:07;2.88;;;2.50;;
22284;SDS011;11311;52.192;20.900;2024-01-16T00:54:36;2.42;;;2.33;;
22284;SDS011;11311;52.192;20.900;2024-01-16T00:57:07;5.95;;;2.97;;
22284;SDS011;11311;52.192;20.900;2024-01-16T00:59:36;3.63;;;2.65;;
22284;SDS011;11311;52.192;20.900;2024-01-16T01:02:05;4.13;;;2.72;;
22284;SDS011;11311;52.192;20.900;2024-01-16T01:04:37;4.53;;;2.78;;
22284;SDS011;11311;52.192;20.900;2024-01-16T01:07:06;3.35;;;3.05;;
22284;SDS011;11311;52.192;20.900;2024-01-16T01:09:35;3.33;;;2.90;;
22284;SDS011;11311;52.192;20.900;2024-01-16T01:12:04;4.43;;;2.78;;
22284;SDS011;11311;52.192;20.900;2024-01-16T01:14:35;5.13;;;3.35;;
22284;SDS011;11311;52.192;20.900;2024-01-16T01:17:05;4.38;;;3.08;;
22284;SDS011;11311;52.192;20.900;2024-01-16T01:19:34;3.25;;;2.67;;
22284;SDS011;11311;52.192;20.900;2024-01-16T01:22:03;4.90;;;3.47;;
22284;SDS011;11311;52.192;20.900;2024-01-16T01:24:32;10.10;;;3.23;;
22284;SDS011;11311;52.192;20.900;2024-01-16T01:27:01;4.88;;;3.15;;
22284;SDS011;11311;52.192;20.900;2024-01-16T01:29:31;5.25;;;3.22;;
22284;SDS011;11311;52.192;20.900;2024-01-16T01:32:01;4.45;;;2.85;;
22284;SDS011;11311;52.192;20.900;2024-01-16T01:34:30;5.00;;;2.95;;
22284;SDS011;11311;52.192;20.900;2024-01-16T01:36:59;6.20;;;3.03;;
22284;SDS011;11311;52.192;20.900;2024-01-16T01:39:29;2.50;;;2.30;;
22284;SDS011;11311;52.192;20.900;2024-01-16T01:41:57;6.07;;;2.50;;
22284;SDS011;11311;52.192;20.900;2024-01-16T01:44:27;5.07;;;2.40;;
22284;SDS011;11311;52.192;20.900;2024-01-16T01:46:56;3.27;;;2.17;;
22284;SDS011;11311;52.192;20.900;2024-01-16T01:49:27;3.33;;;2.67;;
22284;SDS011;11311;52.192;20.900;2024-01-16T01:51:56;2.33;;;2.13;;
22284;SDS011;11311;52.192;20.900;2024-01-16T01:54:25;2.53;;;2.33;;
22284;SDS011;11311;52.192;20.900;2024-01-16T01:56:55;2.72;;;2.47;;
22284;SDS011;11311;52.192;20.900;2024-01-16T01:59:24;6.82;;;2.00;;
22284;SDS011;11311;52.192;20.900;2024-01-16T02:01:53;2.80;;;2.60;;
22284;SDS011;11311;52.192;20.900;2024-01-16T02:04:22;3.13;;;2.80;;
22284;SDS011;11311;52.192;20.900;2024-01-16T02:06:54;3.00;;;2.65;;
22284;SDS011;11311;52.192;20.900;2024-01-16T02:09:24;4.07;;;2.63;;
22284;SDS011;11311;52.192;20.900;2024-01-16T02:11:53;4.32;;;2.33;;
22284;SDS011;11311;52.192;20.900;2024-01-16T02:14:22;3.13;;;2.72;;
22284;SDS011;11311;52.192;20.900;2024-01-16T02:16:51;5.60;;;3.40;;
22284;SDS011;11311;52.192;20.900;2024-01-16T02:19:20;4.15;;;2.47;;
22284;SDS011;11311;52.192;20.900;2024-01-16T02:21:49;3.33;;;2.92;;
22284;SDS011;11311;52.192;20.900;2024-01-16T02:24:20;4.68;;;2.90;;
22284;SDS011;11311;52.192;20.900;2024-01-16T02:26:49;2.92;;;2.60;;
22284;SDS011;11311;52.192;20.900;2024-01-16T02:29:18;8.57;;;3.00;;
22284;SDS011;11311;52.192;20.900;2024-01-16T02:31:47;3.45;;;2.50;;
22284;SDS011;11311;52.192;20.900;2024-01-16T02:34:16;5.45;;;3.17;;
22284;SDS011;11311;52.192;20.900;2024-01-16T02:36:45;4.35;;;3.22;;
22284;SDS011;11311;52.192;20.900;2024-01-16T02:39:14;6.43;;;2.38;;
22284;SDS011;11311;52.192;20.900;2024-01-16T02:41:45;2.75;;;2.55;;
22284;SDS011;11311;52.192;20.900;2024-01-16T02:44:14;2.70;;;2.47;;
22284;SDS011;11311;52.192;20.900;2024-01-16T02:46:43;4.15;;;2.33;;
22284;SDS011;11311;52.192;20.900;2024-01-16T02:49:12;2.80;;;2.50;;
22284;SDS011;11311;52.192;20.900;2024-01-16T02:51:41;3.22;;;2.30;;
22284;SDS011;11311;52.192;20.900;2024-01-16T02:54:10;2.67;;;2.47;;
22284;SDS011;11311;52.192;20.900;2024-01-16T02:56:39;2.25;;;1.95;;
22284;SDS011;11311;52.192;20.900;2024-01-16T02:59:10;4.35;;;2.30;;
22284;SDS011;11311;52.192;20.900;2024-01-16T03:01:39;2.47;;;2.20;;
22284;SDS011;11311;52.192;20.900;2024-01-16T03:04:07;2.63;;;2.42;;
22284;SDS011;11311;52.192;20.900;2024-01-16T03:06:37;3.53;;;2.33;;
22284;SDS011;11311;52.192;20.900;2024-01-16T03:09:06;3.13;;;2.30;;
22284;SDS011;11311;52.192;20.900;2024-01-16T03:11:35;4.85;;;2.60;;
22284;SDS011;11311;52.192;20.900;2024-01-16T03:14:04;8.30;;;3.40;;
22284;SDS011;11311;52.192;20.900;2024-01-16T03:16:35;2.63;;;2.43;;
22284;SDS011;11311;52.192;20.900;2024-01-16T03:19:04;3.60;;;2.33;;
22284;SDS011;11311;52.192;20.900;2024-01-16T03:21:33;6.75;;;2.55;;
22284;SDS011;11311;52.192;20.900;2024-01-16T03:24:02;6.63;;;2.78;;
22284;SDS011;11311;52.192;20.900;2024-01-16T03:26:32;2.80;;;2.60;;
22284;SDS011;11311;52.192;20.900;2024-01-16T03:29:01;3.43;;;2.57;;
22284;SDS011;11311;52.192;20.900;2024-01-16T03:31:29;2.83;;;2.53;;
22284;SDS011;11311;52.192;20.900;2024-01-16T03:34:00;3.92;;;2.92;;
22284;SDS011;11311;52.192;20.900;2024-01-16T03:36:29;3.83;;;3.00;;
22284;SDS011;11311;52.192;20.900;2024-01-16T03:38:58;4.30;;;2.72;;
22284;SDS011;11311;52.192;20.900;2024-01-16T03:41:27;4.20;;;3.00;;
22284;SDS011;11311;52.192;20.900;2024-01-16T03:43:56;5.57;;;3.63;;
22284;SDS011;11311;52.192;20.900;2024-01-16T03:46:25;4.20;;;3.40;;
22284;SDS011;11311;52.192;20.900;2024-01-16T03:48:54;3.10;;;2.83;;
22284;SDS011;11311;52.192;20.900;2024-01-16T03:51:24;6.20;;;3.67;;
22284;SDS011;11311;52.192;20.900;2024-01-16T03:53:53;3.83;;;3.15;;
22284;SDS011;11311;52.192;20.900;2024-01-16T03:56:22;4.95;;;3.53;;
22284;SDS011;11311;52.192;20.900;2024-01-16T03:58:51;3.35;;;2.92;;
22284;SDS011;11311;52.192;20.900;2024-01-16T04:01:29;4.13;;;2.90;;
22284;SDS011;11311;52.192;20.900;2024-01-16T04:03:59;4.30;;;3.78;;
22284;SDS011;11311;52.192;20.900;2024-01-16T04:06:30;5.15;;;4.07;;
22284;SDS011;11311;52.192;20.900;2024-01-16T04:09:00;4.82;;;3.90;;
22284;SDS011;11311;52.192;20.900;2024-01-16T04:11:30;4.53;;;3.70;;
22284;SDS011;11311;52.192;20.900;2024-01-16T04:13:59;4.37;;;3.80;;
22284;SDS011;11311;52.192;20.900;2024-01-16T04:16:27;5.07;;;3.63;;
22284;SDS011;11311;52.192;20.900;2024-01-16T04:18:56;4.40;;;3.87;;
22284;SDS011;11311;52.192;20.900;2024-01-16T04:21:26;4.68;;;3.42;;
22284;SDS011;11311;52.192;20.900;2024-01-16T04:23:57;4.72;;;3.75;;
22284;SDS011;11311;52.192;20.900;2024-01-16T04:26:26;7.90;;;3.70;;
22284;SDS011;11311;52.192;20.900;2024-01-16T04:28:55;6.50;;;3.65;;
22284;SDS011;11311;52.192;20.900;2024-01-16T04:31:24;6.90;;;3.90;;
22284;SDS011;11311;52.192;20.900;2024-01-16T04:33:53;5.10;;;3.87;;
22284;SDS011;11311;52.192;20.900;2024-01-16T04:36:22;6.32;;;3.47;;
22284;SDS011;11311;52.192;20.900;2024-01-16T04:38:51;9.80;;;3.87;;
22284;SDS011;11311;52.192;20.900;2024-01-16T04:41:21;4.97;;;4.45;;
22284;SDS011;11311;52.192;20.900;2024-01-16T04:46:19;5.07;;;4.57;;
22284;SDS011;11311;52.192;20.900;2024-01-16T04:48:48;4.72;;;3.45;;
22284;SDS011;11311;52.192;20.900;2024-01-16T04:51:17;4.65;;;3.65;;
22284;SDS011;11311;52.192;20.900;2024-01-16T04:53:46;8.83;;;3.80;;
22284;SDS011;11311;52.192;20.900;2024-01-16T04:56:15;5.63;;;4.15;;
22284;SDS011;11311;52.192;20.900;2024-01-16T04:58:45;5.03;;;4.15;;
22284;SDS011;11311;52.192;20.900;2024-01-16T05:01:15;8.00;;;4.68;;
22284;SDS011;11311;52.192;20.900;2024-01-16T05:03:43;6.10;;;4.47;;
22284;SDS011;11311;52.192;20.900;2024-01-16T05:06:13;6.85;;;4.07;;
22284;SDS011;11311;52.192;20.900;2024-01-16T05:08:43;9.32;;;4.13;;
22284;SDS011;11311;52.192;20.900;2024-01-16T05:11:12;4.77;;;3.87;;
22284;SDS011;11311;52.192;20.900;2024-01-16T05:13:41;5.85;;;3.90;;
22284;SDS011;11311;52.192;20.900;2024-01-16T05:16:11;13.05;;;4.25;;
22284;SDS011;11311;52.192;20.900;2024-01-16T05:18:41;6.35;;;4.22;;
22284;SDS011;11311;52.192;20.900;2024-01-16T05:21:11;7.15;;;4.65;;
22284;SDS011;11311;52.192;20.900;2024-01-16T05:23:40;5.53;;;3.83;;
22284;SDS011;11311;52.192;20.900;2024-01-16T05:26:10;8.27;;;4.25;;
22284;SDS011;11311;52.192;20.900;2024-01-16T05:28:38;7.57;;;4.90;;
22284;SDS011;11311;52.192;20.900;2024-01-16T05:31:07;9.87;;;4.67;;
22284;SDS011;11311;52.192;20.900;2024-01-16T05:33:38;7.43;;;5.13;;
22284;SDS011;11311;52.192;20.900;2024-01-16T05:36:08;6.65;;;4.57;;
22284;SDS011;11311;52.192;20.900;2024-01-16T05:38:37;6.57;;;4.33;;
22284;SDS011;11311;52.192;20.900;2024-01-16T05:41:06;6.17;;;4.00;;
22284;SDS011;11311;52.192;20.900;2024-01-16T05:43:35;9.63;;;5.50;;
22284;SDS011;11311;52.192;20.900;2024-01-16T05:46:04;8.73;;;5.03;;
22284;SDS011;11311;52.192;20.900;2024-01-16T05:48:35;9.50;;;4.60;;
22284;SDS011;11311;52.192;20.900;2024-01-16T05:51:06;7.43;;;4.27;;
22284;SDS011;11311;52.192;20.900;2024-01-16T05:53:35;7.05;;;4.22;;
22284;SDS011;11311;52.192;20.900;2024-01-16T05:56:04;9.52;;;4.25;;
22284;SDS011;11311;52.192;20.900;2024-01-16T05:58:34;9.10;;;4.65;;
22284;SDS011;11311;52.192;20.900;2024-01-16T06:01:06;10.85;;;6.47;;
22284;SDS011;11311;52.192;20.900;2024-01-16T06:03:35;13.95;;;5.82;;
22284;SDS011;11311;52.192;20.900;2024-01-16T06:06:05;11.45;;;4.30;;
22284;SDS011;11311;52.192;20.900;2024-01-16T06:08:35;8.52;;;5.47;;
22284;SDS011;11311;52.192;20.900;2024-01-16T06:11:04;6.85;;;4.70;;
22284;SDS011;11311;52.192;20.900;2024-01-16T06:13:33;11.55;;;6.05;;
22284;SDS011;11311;52.192;20.900;2024-01-16T06:16:02;15.77;;;6.50;;
22284;SDS011;11311;52.192;20.900;2024-01-16T06:18:31;13.48;;;6.20;;
22284;SDS011;11311;52.192;20.900;2024-01-16T06:21:01;12.85;;;6.45;;
22284;SDS011;11311;52.192;20.900;2024-01-16T06:23:32;12.50;;;6.55;;
22284;SDS011;11311;52.192;20.900;2024-01-16T06:26:01;12.70;;;6.20;;
22284;SDS011;11311;52.192;20.900;2024-01-16T06:28:30;9.23;;;6.13;;
22284;SDS011;11311;52.192;20.900;2024-01-16T06:30:59;13.43;;;7.18;;
22284;SDS011;11311;52.192;20.900;2024-01-16T06:33:28;12.80;;;4.87;;
22284;SDS011;11311;52.192;20.900;2024-01-16T06:35:57;11.40;;;5.97;;
22284;SDS011;11311;52.192;20.900;2024-01-16T06:38:26;11.32;;;4.97;;
22284;SDS011;11311;52.192;20.900;2024-01-16T06:40:57;11.97;;;6.40;;
22284;SDS011;11311;52.192;20.900;2024-01-16T06:43:27;9.10;;;5.82;;
22284;SDS011;11311;52.192;20.900;2024-01-16T06:45:56;12.10;;;5.88;;
22284;SDS011;11311;52.192;20.900;2024-01-16T06:48:26;10.23;;;5.65;;
22284;SDS011;11311;52.192;20.900;2024-01-16T06:50:55;14.25;;;5.70;;
22284;SDS011;11311;52.192;20.900;2024-01-16T06:53:24;14.43;;;6.03;;
22284;SDS011;11311;52.192;20.900;2024-01-16T06:55:53;11.90;;;5.85;;
22284;SDS011;11311;52.192;20.900;2024-01-16T06:58:23;8.75;;;5.13;;
22284;SDS011;11311;52.192;20.900;2024-01-16T07:00:52;13.88;;;6.32;;
22284;SDS011;11311;52.192;20.900;2024-01-16T07:03:22;11.40;;;5.18;;
22284;SDS011;11311;52.192;20.900;2024-01-16T07:05:51;8.20;;;5.28;;
22284;SDS011;11311;52.192;20.900;2024-01-16T07:08:20;9.90;;;4.90;;
22284;SDS011;11311;52.192;20.900;2024-01-16T07:10:50;12.32;;;4.18;;
22284;SDS011;11311;52.192;20.900;2024-01-16T07:13:19;6.80;;;4.23;;
22284;SDS011;11311;52.192;20.900;2024-01-16T07:15:49;7.33;;;4.10;;
22284;SDS011;11311;52.192;20.900;2024-01-16T07:18:18;5.32;;;3.70;;
22284;SDS011;11311;52.192;20.900;2024-01-16T07:20:47;6.10;;;3.40;;
22284;SDS011;11311;52.192;20.900;2024-01-16T07:23:16;6.50;;;3.47;;
22284;SDS011;11311;52.192;20.900;2024-01-16T07:25:45;7.68;;;3.33;;
22284;SDS011;11311;52.192;20.900;2024-01-16T07:28:14;6.90;;;3.90;;
22284;SDS011;11311;52.192;20.900;2024-01-16T07:30:43;8.60;;;4.30;;
22284;SDS011;11311;52.192;20.900;2024-01-16T07:33:14;7.55;;;4.75;;
22284;SDS011;11311;52.192;20.900;2024-01-16T07:35:43;9.43;;;4.50;;
22284;SDS011;11311;52.192;20.900;2024-01-16T07:38:17;9.52;;;5.28;;
22284;SDS011;11311;52.192;20.900;2024-01-16T07:40:46;7.85;;;4.75;;
22284;SDS011;11311;52.192;20.900;2024-01-16T07:43:15;8.38;;;4.57;;
22284;SDS011;11311;52.192;20.900;2024-01-16T07:45:44;10.85;;;4.80;;
22284;SDS011;11311;52.192;20.900;2024-01-16T07:48:14;6.60;;;4.80;;
22284;SDS011;11311;52.192;20.900;2024-01-16T07:50:43;12.65;;;5.30;;
22284;SDS011;11311;52.192;20.900;2024-01-16T07:53:13;12.18;;;4.50;;
22284;SDS011;11311;52.192;20.900;2024-01-16T07:55:42;7.35;;;3.90;;
22284;SDS011;11311;52.192;20.900;2024-01-16T07:58:11;6.13;;;3.28;;
22284;SDS011;11311;52.192;20.900;2024-01-16T08:00:40;5.72;;;3.90;;
22284;SDS011;11311;52.192;20.900;2024-01-16T08:03:10;11.00;;;4.40;;
22284;SDS011;11311;52.192;20.900;2024-01-16T08:05:41;5.00;;;3.35;;
22284;SDS011;11311;52.192;20.900;2024-01-16T08:08:10;9.98;;;3.90;;
22284;SDS011;11311;52.192;20.900;2024-01-16T08:10:40;4.50;;;2.95;;
22284;SDS011;11311;52.192;20.900;2024-01-16T08:13:09;6.25;;;3.80;;
22284;SDS011;11311;52.192;20.900;2024-01-16T08:15:38;7.70;;;3.67;;
22284;SDS011;11311;52.192;20.900;2024-01-16T08:18:08;7.75;;;3.53;;
22284;SDS011;11311;52.192;20.900;2024-01-16T08:20:37;7.15;;;3.97;;
22284;SDS011;11311;52.192;20.900;2024-01-16T08:23:07;5.10;;;3.08;;
22284;SDS011;11311;52.192;20.900;2024-01-16T08:28:05;4.72;;;3.20;;
22284;SDS011;11311;52.192;20.900;2024-01-16T08:30:34;5.38;;;3.78;;
22284;SDS011;11311;52.192;20.900;2024-01-16T08:33:04;9.13;;;4.47;;
22284;SDS011;11311;52.192;20.900;2024-01-16T08:35:33;7.22;;;3.92;;
22284;SDS011;11311;52.192;20.900;2024-01-16T08:38:02;10.23;;;4.75;;
22284;SDS011;11311;52.192;20.900;2024-01-16T08:40:32;8.32;;;4.13;;
22284;SDS011;11311;52.192;20.900;2024-01-16T08:43:01;9.07;;;4.28;;
22284;SDS011;11311;52.192;20.900;2024-01-16T08:45:31;10.52;;;5.25;;
22284;SDS011;11311;52.192;20.900;2024-01-16T08:48:00;7.63;;;4.75;;
22284;SDS011;11311;52.192;20.900;2024-01-16T08:50:29;8.80;;;4.15;;
22284;SDS011;11311;52.192;20.900;2024-01-16T08:52:58;6.90;;;4.00;;
22284;SDS011;11311;52.192;20.900;2024-01-16T08:55:27;6.90;;;4.22;;
22284;SDS011;11311;52.192;20.900;2024-01-16T08:57:59;11.15;;;4.50;;
22284;SDS011;11311;52.192;20.900;2024-01-16T09:00:28;5.82;;;3.45;;
22284;SDS011;11311;52.192;20.900;2024-01-16T09:02:57;8.07;;;3.83;;
22284;SDS011;11311;52.192;20.900;2024-01-16T09:05:30;7.63;;;4.10;;
22284;SDS011;11311;52.192;20.900;2024-01-16T09:08:02;9.48;;;4.25;;
22284;SDS011;11311;52.192;20.900;2024-01-16T09:10:31;7.93;;;3.80;;
22284;SDS011;11311;52.192;20.900;2024-01-16T09:13:01;10.23;;;4.05;;
22284;SDS011;11311;52.192;20.900;2024-01-16T09:15:31;6.57;;;4.00;;
22284;SDS011;11311;52.192;20.900;2024-01-16T09:18:00;8.18;;;4.07;;
22284;SDS011;11311;52.192;20.900;2024-01-16T09:20:29;6.22;;;3.22;;
22284;SDS011;11311;52.192;20.900;2024-01-16T09:22:58;7.18;;;3.75;;
22284;SDS011;11311;52.192;20.900;2024-01-16T09:25:27;6.60;;;3.47;;
22284;SDS011;11311;52.192;20.900;2024-01-16T09:27:56;4.32;;;3.40;;
22284;SDS011;11311;52.192;20.900;2024-01-16T09:30:27;4.47;;;2.78;;
22284;SDS011;11311;52.192;20.900;2024-01-16T09:32:56;4.25;;;3.47;;
22284;SDS011;11311;52.192;20.900;2024-01-16T09:35:25;7.28;;;2.97;;
22284;SDS011;11311;52.192;20.900;2024-01-16T09:37:54;8.18;;;2.67;;
22284;SDS011;11311;52.192;20.900;2024-01-16T09:40:23;8.65;;;3.05;;
22284;SDS011;11311;52.192;20.900;2024-01-16T09:42:52;6.68;;;3.63;;
22284;SDS011;11311;52.192;20.900;2024-01-16T09:45:21;8.70;;;4.32;;
22284;SDS011;11311;52.192;20.900;2024-01-16T09:47:52;4.95;;;3.00;;
22284;SDS011;11311;52.192;20.900;2024-01-16T09:50:22;6.45;;;3.22;;
22284;SDS011;11311;52.192;20.900;2024-01-16T09:52:51;5.60;;;3.30;;
22284;SDS011;11311;52.192;20.900;2024-01-16T09:55:24;7.18;;;4.10;;
22284;SDS011;11311;52.192;20.900;2024-01-16T09:57:53;8.18;;;3.78;;
22284;SDS011;11311;52.192;20.900;2024-01-16T10:00:22;10.20;;;4.47;;
22284;SDS011;11311;52.192;20.900;2024-01-16T10:02:54;8.25;;;3.28;;
22284;SDS011;11311;52.192;20.900;2024-01-16T10:05:26;9.27;;;4.40;;
22284;SDS011;11311;52.192;20.900;2024-01-16T10:07:56;10.68;;;5.10;;
22284;SDS011;11311;52.192;20.900;2024-01-16T10:10:25;9.75;;;4.00;;
22284;SDS011;11311;52.192;20.900;2024-01-16T10:13:12;7.82;;;4.72;;
22284;SDS011;11311;52.192;20.900;2024-01-16T10:15:42;9.80;;;5.22;;
22284;SDS011;11311;52.192;20.900;2024-01-16T10:18:22;9.90;;;5.40;;
22284;SDS011;11311;52.192;20.900;2024-01-16T10:20:53;10.32;;;5.60;;
22284;SDS011;11311;52.192;20.900;2024-01-16T10:23:22;6.90;;;4.82;;
22284;SDS011;11311;52.192;20.900;2024-01-16T10:28:42;14.63;;;6.75;;
22284;SDS011;11311;52.192;20.900;2024-01-16T10:31:12;10.20;;;6.30;;
22284;SDS011;11311;52.192;20.900;2024-01-16T10:33:44;13.65;;;5.47;;
22284;SDS011;11311;52.192;20.900;2024-01-16T10:36:14;9.27;;;5.30;;
22284;SDS011;11311;52.192;20.900;2024-01-16T10:38:46;9.02;;;4.82;;
22284;SDS011;11311;52.192;20.900;2024-01-16T10:41:15;12.27;;;6.93;;
22284;SDS011;11311;52.192;20.900;2024-01-16T10:43:45;12.82;;;6.35;;
22284;SDS011;11311;52.192;20.900;2024-01-16T10:46:15;13.70;;;6.65;;
22284;SDS011;11311;52.192;20.900;2024-01-16T10:48:58;10.30;;;6.28;;
22284;SDS011;11311;52.192;20.900;2024-01-16T10:51:28;12.00;;;5.97;;
22284;SDS011;11311;52.192;20.900;2024-01-16T10:53:58;13.10;;;6.90;;
22284;SDS011;11311;52.192;20.900;2024-01-16T10:56:28;11.88;;;6.78;;
22284;SDS011;11311;52.192;20.900;2024-01-16T10:59:00;12.20;;;6.55;;
22284;SDS011;11311;52.192;20.900;2024-01-16T11:01:34;13.00;;;6.03;;
22284;SDS011;11311;52.192;20.900;2024-01-16T11:04:06;8.73;;;5.65;;
22284;SDS011;11311;52.192;20.900;2024-01-16T11:06:35;9.43;;;5.45;;
22284;SDS011;11311;52.192;20.900;2024-01-16T11:09:05;7.57;;;5.07;;
22284;SDS011;11311;52.192;20.900;2024-01-16T11:11:35;9.88;;;5.15;;
22284;SDS011;11311;52.192;20.900;2024-01-16T11:14:07;11.43;;;4.50;;
22284;SDS011;11311;52.192;20.900;2024-01-16T11:19:07;6.85;;;5.00;;
22284;SDS011;11311;52.192;20.900;2024-01-16T11:21:57;8.85;;;5.22;;
22284;SDS011;11311;52.192;20.900;2024-01-16T11:24:27;7.47;;;5.07;;
22284;SDS011;11311;52.192;20.900;2024-01-16T11:26:56;7.47;;;4.60;;
22284;SDS011;11311;52.192;20.900;2024-01-16T11:29:34;14.30;;;6.40;;
22284;SDS011;11311;52.192;20.900;2024-01-16T11:32:04;12.73;;;5.73;;
22284;SDS011;11311;52.192;20.900;2024-01-16T11:34:55;9.82;;;5.32;;
22284;SDS011;11311;52.192;20.900;2024-01-16T11:37:25;11.25;;;5.68;;
22284;SDS011;11311;52.192;20.900;2024-01-16T11:42:50;6.80;;;4.35;;
22284;SDS011;11311;52.192;20.900;2024-01-16T11:48:19;10.38;;;6.40;;
22284;SDS011;11311;52.192;20.900;2024-01-16T11:50:50;10.98;;;7.10;;
22284;SDS011;11311;52.192;20.900;2024-01-16T11:53:33;14.18;;;6.05;;
22284;SDS011;11311;52.192;20.900;2024-01-16T11:56:13;9.98;;;5.30;;
22284;SDS011;11311;52.192;20.900;2024-01-16T11:59:11;11.00;;;5.68;;
22284;SDS011;11311;52.192;20.900;2024-01-16T12:01:48;8.38;;;5.88;;
22284;SDS011;11311;52.192;20.900;2024-01-16T12:04:19;8.95;;;5.55;;
22284;SDS011;11311;52.192;20.900;2024-01-16T12:06:58;7.50;;;5.70;;
22284;SDS011;11311;52.192;20.900;2024-01-16T12:09:28;10.10;;;5.13;;
22284;SDS011;11311;52.192;20.900;2024-01-16T12:11:59;7.93;;;4.80;;
22284;SDS011;11311;52.192;20.900;2024-01-16T12:14:30;9.52;;;5.88;;
22284;SDS011;11311;52.192;20.900;2024-01-16T12:17:08;8.20;;;5.53;;
22284;SDS011;11311;52.192;20.900;2024-01-16T12:19:38;7.15;;;4.82;;
22284;SDS011;11311;52.192;20.900;2024-01-16T12:22:13;6.90;;;4.90;;
22284;SDS011;11311;52.192;20.900;2024-01-16T12:24:43;7.15;;;4.38;;
22284;SDS011;11311;52.192;20.900;2024-01-16T12:27:13;9.93;;;5.13;;
22284;SDS011;11311;52.192;20.900;2024-01-16T12:29:43;18.35;;;5.30;;
22284;SDS011;11311;52.192;20.900;2024-01-16T12:32:13;9.10;;;5.05;;
22284;SDS011;11311;52.192;20.900;2024-01-16T12:34:43;5.57;;;3.97;;
22284;SDS011;11311;52.192;20.900;2024-01-16T12:37:15;6.22;;;4.38;;
22284;SDS011;11311;52.192;20.900;2024-01-16T12:39:45;9.57;;;5.05;;
22284;SDS011;11311;52.192;20.900;2024-01-16T12:44:44;6.50;;;4.15;;
22284;SDS011;11311;52.192;20.900;2024-01-16T12:47:16;5.40;;;3.70;;
22284;SDS011;11311;52.192;20.900;2024-01-16T12:49:46;9.00;;;4.78;;
22284;SDS011;11311;52.192;20.900;2024-01-16T12:52:20;9.23;;;4.63;;
22284;SDS011;11311;52.192;20.900;2024-01-16T12:54:58;9.82;;;5.28;;
22284;SDS011;11311;52.192;20.900;2024-01-16T12:57:31;9.48;;;4.63;;
22284;SDS011;11311;52.192;20.900;2024-01-16T13:00:00;11.05;;;5.05;;
22284;SDS011;11311;52.192;20.900;2024-01-16T13:02:33;9.95;;;4.53;;
22284;SDS011;11311;52.192;20.900;2024-01-16T13:05:03;9.13;;;5.18;;
22284;SDS011;11311;52.192;20.900;2024-01-16T13:07:36;6.18;;;3.83;;
22284;SDS011;11311;52.192;20.900;2024-01-16T13:10:05;12.43;;;4.72;;
22284;SDS011;11311;52.192;20.900;2024-01-16T13:12:36;20.15;;;5.20;;
22284;SDS011;11311;52.192;20.900;2024-01-16T13:15:05;7.72;;;4.53;;
22284;SDS011;11311;52.192;20.900;2024-01-16T13:20:04;9.98;;;3.60;;
22284;SDS011;11311;52.192;20.900;2024-01-16T13:22:38;6.07;;;4.18;;
22284;SDS011;11311;52.192;20.900;2024-01-16T13:25:14;7.18;;;4.93;;
22284;SDS011;11311;52.192;20.900;2024-01-16T13:27:43;8.40;;;5.13;;
22284;SDS011;11311;52.192;20.900;2024-01-16T13:32:43;6.28;;;4.15;;
22284;SDS011;11311;52.192;20.900;2024-01-16T13:35:12;11.30;;;5.45;;
22284;SDS011;11311;52.192;20.900;2024-01-16T13:37:43;8.98;;;4.70;;
22284;SDS011;11311;52.192;20.900;2024-01-16T13:40:12;8.27;;;5.43;;
22284;SDS011;11311;52.192;20.900;2024-01-16T13:42:48;10.05;;;4.57;;
22284;SDS011;11311;52.192;20.900;2024-01-16T13:45:17;7.00;;;5.32;;
22284;SDS011;11311;52.192;20.900;2024-01-16T13:47:47;4.55;;;3.53;;
22284;SDS011;11311;52.192;20.900;2024-01-16T13:50:16;3.45;;;3.10;;
22284;SDS011;11311;52.192;20.900;2024-01-16T13:52:46;7.10;;;4.22;;
22284;SDS011;11311;52.192;20.900;2024-01-16T13:55:15;4.95;;;4.20;;
22284;SDS011;11311;52.192;20.900;2024-01-16T13:57:45;4.00;;;3.63;;
22284;SDS011;11311;52.192;20.900;2024-01-16T14:00:15;10.27;;;4.47;;
22284;SDS011;11311;52.192;20.900;2024-01-16T14:02:45;8.00;;;4.57;;
22284;SDS011;11311;52.192;20.900;2024-01-16T14:05:16;9.57;;;4.97;;
22284;SDS011;11311;52.192;20.900;2024-01-16T14:07:48;9.65;;;5.13;;
22284;SDS011;11311;52.192;20.900;2024-01-16T14:10:18;7.30;;;4.95;;
22284;SDS011;11311;52.192;20.900;2024-01-16T14:15:18;7.88;;;4.22;;
22284;SDS011;11311;52.192;20.900;2024-01-16T14:17:50;8.50;;;5.10;;
22284;SDS011;11311;52.192;20.900;2024-01-16T14:20:20;12.75;;;5.20;;
22284;SDS011;11311;52.192;20.900;2024-01-16T14:22:55;12.43;;;5.85;;
22284;SDS011;11311;52.192;20.900;2024-01-16T14:25:25;13.65;;;5.90;;
22284;SDS011;11311;52.192;20.900;2024-01-16T14:27:57;7.45;;;5.32;;
22284;SDS011;11311;52.192;20.900;2024-01-16T14:30:27;10.25;;;5.75;;
22284;SDS011;11311;52.192;20.900;2024-01-16T14:32:56;13.93;;;5.68;;
22284;SDS011;11311;52.192;20.900;2024-01-16T14:35:25;8.55;;;5.30;;
22284;SDS011;11311;52.192;20.900;2024-01-16T14:37:56;14.93;;;7.37;;
22284;SDS011;11311;52.192;20.900;2024-01-16T14:42:55;10.38;;;6.15;;
22284;SDS011;11311;52.192;20.900;2024-01-16T14:45:25;8.35;;;5.78;;
22284;SDS011;11311;52.192;20.900;2024-01-16T14:47:55;13.82;;;6.47;;
22284;SDS011;11311;52.192;20.900;2024-01-16T14:50:25;14.88;;;7.20;;
22284;SDS011;11311;52.192;20.900;2024-01-16T14:52:54;10.10;;;6.03;;
22284;SDS011;11311;52.192;20.900;2024-01-16T14:55:24;15.80;;;7.10;;
22284;SDS011;11311;52.192;20.900;2024-01-16T14:57:53;17.50;;;9.00;;
22284;SDS011;11311;52.192;20.900;2024-01-16T15:00:28;12.95;;;7.70;;
22284;SDS011;11311;52.192;20.900;2024-01-16T15:02:58;14.55;;;8.73;;
22284;SDS011;11311;52.192;20.900;2024-01-16T15:05:51;11.65;;;7.32;;
22284;SDS011;11311;52.192;20.900;2024-01-16T15:08:24;12.30;;;7.10;;
22284;SDS011;11311;52.192;20.900;2024-01-16T15:10:53;14.95;;;7.32;;
22284;SDS011;11311;52.192;20.900;2024-01-16T15:13:22;17.58;;;7.60;;
22284;SDS011;11311;52.192;20.900;2024-01-16T15:15:51;12.45;;;7.93;;
22284;SDS011;11311;52.192;20.900;2024-01-16T15:18:21;15.73;;;8.18;;